createdAt,value
2022-07-27T00:01:12.933Z,21.47
2022-07-27T00:03:41.812Z,21.65
2022-07-27T00:06:10.278Z,21.67
2022-07-27T00:08:38.757Z,21.60
2022-07-27T00:11:07.151Z,21.22
2022-07-27T00:13:35.550Z,21.44
2022-07-27T00:16:04.476Z,21.38
2022-07-27T00:18:34.364Z,21.28
2022-07-27T00:21:02.848Z,21.09
2022-07-27T00:23:31.312Z,21.13
2022-07-27T00:25:59.749Z,21.01
2022-07-27T00:28:28.133Z,21.13
2022-07-27T00:30:56.795Z,20.85
2022-07-27T00:33:25.226Z,20.66
2022-07-27T00:35:55.325Z,20.71
2022-07-27T00:38:23.690Z,20.79
2022-07-27T00:40:52.065Z,20.79
2022-07-27T00:43:20.921Z,20.82
2022-07-27T00:45:49.258Z,20.88
2022-07-27T00:48:18.988Z,20.58
2022-07-27T00:50:49.171Z,20.69
2022-07-27T00:53:18.957Z,20.54
2022-07-27T00:55:47.382Z,20.62
2022-07-27T00:58:15.778Z,20.44
2022-07-27T01:00:44.164Z,20.49
2022-07-27T01:03:12.594Z,20.63
2022-07-27T01:05:44.862Z,20.37
2022-07-27T01:08:15.149Z,20.26
2022-07-27T01:10:45.070Z,20.61
2022-07-27T01:13:13.898Z,20.82
2022-07-27T01:15:43.523Z,20.43
2022-07-27T01:18:13.276Z,20.36
2022-07-27T01:20:42.487Z,20.19
2022-07-27T01:23:12.503Z,20.19
2022-07-27T01:25:42.891Z,20.64
2022-07-27T01:28:11.087Z,20.68
2022-07-27T01:30:39.458Z,20.24
2022-07-27T01:33:09.259Z,20.16
2022-07-27T01:35:38.921Z,20.21
2022-07-27T01:38:09.644Z,20.25
2022-07-27T01:40:40.081Z,20.06
2022-07-27T01:43:08.288Z,20.26
2022-07-27T01:45:36.843Z,20.28
2022-07-27T01:48:05.618Z,20.25
2022-07-27T01:50:34.168Z,20.14
2022-07-27T01:53:02.568Z,19.72
2022-07-27T01:55:36.993Z,19.89
2022-07-27T01:58:09.749Z,19.92
2022-07-27T02:00:38.328Z,19.90
2022-07-27T02:03:08.653Z,19.76
2022-07-27T02:05:38.021Z,19.60
2022-07-27T02:08:07.125Z,19.84
2022-07-27T02:10:35.556Z,19.84
2022-07-27T02:13:22.933Z,19.50
2022-07-27T02:15:54.617Z,19.14
2022-07-27T02:18:36.358Z,19.29
2022-07-27T02:21:06.940Z,19.68
2022-07-27T02:23:35.683Z,19.43
2022-07-27T02:26:04.635Z,19.61
2022-07-27T02:28:33.250Z,19.59
2022-07-27T02:31:03.738Z,19.91
2022-07-27T02:33:32.124Z,19.88
2022-07-27T02:36:00.536Z,19.94
2022-07-27T02:38:29.076Z,20.09
2022-07-27T02:40:57.430Z,19.70
2022-07-27T02:43:25.879Z,19.99
2022-07-27T02:45:54.415Z,19.77
2022-07-27T02:48:24.266Z,20.01
2022-07-27T02:50:53.033Z,20.09
2022-07-27T02:53:21.432Z,19.95
2022-07-27T02:55:49.786Z,20.20
2022-07-27T02:58:18.157Z,20.33
2022-07-27T03:00:46.629Z,20.20
2022-07-27T03:03:15.319Z,20.19
2022-07-27T03:05:45.316Z,20.22
2022-07-27T03:08:13.697Z,20.30
2022-07-27T03:10:42.103Z,20.22
2022-07-27T03:13:17.381Z,20.44
2022-07-27T03:15:45.827Z,20.29
2022-07-27T03:18:14.221Z,20.21
2022-07-27T03:20:42.931Z,20.01
2022-07-27T03:23:12.738Z,20.14
2022-07-27T03:25:41.481Z,20.27
2022-07-27T03:28:09.974Z,20.23
2022-07-27T03:30:38.461Z,20.10
2022-07-27T03:33:07.047Z,19.95
2022-07-27T03:35:35.519Z,20.01
2022-07-27T03:38:04.465Z,20.43
2022-07-27T03:40:34.360Z,20.30
2022-07-27T03:43:02.755Z,20.14
2022-07-27T03:45:31.149Z,20.15
2022-07-27T03:47:59.544Z,20.23
2022-07-27T03:50:27.995Z,20.34
2022-07-27T03:52:56.335Z,20.51
2022-07-27T03:55:25.692Z,20.36
2022-07-27T03:57:55.585Z,20.12
2022-07-27T04:00:24.236Z,20.47
2022-07-27T04:02:53.053Z,20.29
2022-07-27T04:05:21.935Z,20.63
2022-07-27T04:07:54.930Z,20.60
2022-07-27T04:10:23.825Z,20.55
2022-07-27T04:12:55.186Z,20.54
2022-07-27T04:15:23.532Z,20.53
2022-07-27T04:17:55.406Z,20.47
2022-07-27T04:20:25.897Z,20.60
2022-07-27T04:22:54.372Z,20.72
2022-07-27T04:25:22.972Z,20.60
2022-07-27T04:27:54.561Z,20.68
2022-07-27T04:30:24.909Z,20.65
2022-07-27T04:32:53.627Z,20.68
2022-07-27T04:35:26.241Z,20.36
2022-07-27T04:37:58.627Z,20.35
2022-07-27T04:40:32.916Z,20.70
2022-07-27T04:43:01.944Z,20.70
2022-07-27T04:45:31.987Z,21.13
2022-07-27T04:48:00.529Z,21.25
2022-07-27T04:50:28.982Z,21.00
2022-07-27T04:52:57.450Z,21.36
2022-07-27T04:55:25.930Z,21.35
2022-07-27T04:57:54.297Z,21.44
2022-07-27T05:00:22.838Z,21.19
2022-07-27T05:02:52.633Z,21.35
2022-07-27T05:05:21.200Z,21.12
2022-07-27T05:07:49.627Z,21.77
2022-07-27T05:10:20.481Z,21.29
2022-07-27T05:12:50.119Z,21.86
2022-07-27T05:15:18.944Z,22.15
2022-07-27T05:17:47.373Z,22.11
2022-07-27T05:20:17.318Z,22.38
2022-07-27T05:22:45.689Z,22.61
2022-07-27T05:25:14.305Z,22.53
2022-07-27T05:27:54.364Z,22.56
2022-07-27T05:30:25.427Z,22.73
2022-07-27T05:32:54.209Z,22.94
2022-07-27T05:35:24.154Z,22.52
2022-07-27T05:37:52.715Z,22.84
2022-07-27T05:40:21.190Z,23.20
2022-07-27T05:42:49.592Z,23.32
2022-07-27T05:45:18.029Z,23.43
2022-07-27T05:47:46.445Z,23.40
2022-07-27T05:50:15.299Z,23.77
2022-07-27T05:52:45.456Z,24.33
2022-07-27T05:55:14.928Z,24.65
2022-07-27T05:57:43.578Z,24.87
2022-07-27T06:00:12.972Z,24.70
2022-07-27T06:02:41.618Z,24.51
2022-07-27T06:05:15.569Z,24.92
2022-07-27T06:08:03.085Z,24.89
2022-07-27T06:10:32.676Z,24.91
2022-07-27T06:13:01.287Z,24.87
2022-07-27T06:15:29.719Z,24.80
2022-07-27T06:17:58.116Z,24.71
2022-07-27T06:20:27.289Z,24.91
2022-07-27T06:25:46.306Z,24.99
2022-07-27T06:28:14.649Z,25.34
2022-07-27T06:30:43.766Z,25.37
2022-07-27T06:33:12.637Z,25.43
2022-07-27T06:35:41.716Z,25.68
2022-07-27T06:38:11.484Z,25.64
2022-07-27T06:40:40.135Z,25.53
2022-07-27T06:43:08.480Z,25.62
2022-07-27T06:45:37.545Z,25.87
2022-07-27T06:48:06.543Z,26.10
2022-07-27T06:50:34.881Z,25.90
2022-07-27T06:53:03.746Z,26.04
2022-07-27T06:55:34.201Z,25.75
2022-07-27T06:58:02.572Z,25.91
2022-07-27T07:00:31.105Z,26.50
2022-07-27T07:05:47.799Z,26.73
2022-07-27T07:08:16.212Z,26.79
2022-07-27T07:10:46.531Z,27.11
2022-07-27T07:13:15.803Z,26.49
2022-07-27T07:15:44.906Z,26.61
2022-07-27T07:18:14.425Z,26.70
2022-07-27T07:20:43.030Z,26.73
2022-07-27T07:23:11.920Z,26.68
2022-07-27T07:25:40.838Z,27.07
2022-07-27T07:28:10.658Z,27.26
2022-07-27T07:30:39.030Z,27.21
2022-07-27T07:33:07.460Z,27.35
2022-07-27T07:35:36.144Z,27.25
2022-07-27T07:38:04.543Z,27.59
2022-07-27T07:40:43.332Z,27.55
2022-07-27T07:43:15.093Z,27.11
2022-07-27T07:45:50.922Z,26.56
2022-07-27T07:48:21.675Z,27.52
2022-07-27T07:50:52.048Z,27.29
2022-07-27T07:53:22.127Z,27.57
2022-07-27T07:55:50.685Z,26.91
2022-07-27T07:58:20.548Z,27.27
2022-07-27T08:00:49.243Z,27.72
2022-07-27T08:03:17.726Z,27.12
2022-07-27T08:05:46.177Z,26.80
2022-07-27T08:08:14.571Z,26.68
2022-07-27T08:10:42.919Z,26.72
2022-07-27T08:13:11.325Z,27.20
2022-07-27T08:15:41.297Z,26.82
2022-07-27T08:18:09.974Z,27.25
2022-07-27T08:20:38.457Z,27.79
2022-07-27T08:23:06.858Z,27.41
2022-07-27T08:25:35.451Z,27.40
2022-07-27T08:28:03.847Z,27.33
2022-07-27T08:30:33.143Z,27.31
2022-07-27T08:33:05.344Z,27.76
2022-07-27T08:35:34.768Z,27.95
2022-07-27T08:38:04.930Z,27.57
2022-07-27T08:40:40.341Z,27.37
2022-07-27T08:43:10.818Z,27.13
2022-07-27T08:45:41.712Z,27.26
2022-07-27T08:48:20.377Z,27.18
2022-07-27T08:50:49.936Z,27.27
2022-07-27T08:53:18.570Z,27.71
2022-07-27T08:55:48.124Z,27.36
2022-07-27T08:58:17.126Z,27.44
2022-07-27T09:00:48.175Z,27.94
2022-07-27T09:03:20.875Z,28.01
2022-07-27T09:05:52.620Z,28.45
2022-07-27T09:08:24.326Z,28.78
2022-07-27T09:10:54.712Z,28.95
2022-07-27T09:13:26.181Z,28.74
2022-07-27T09:18:46.549Z,28.94
2022-07-27T09:21:17.248Z,29.05
2022-07-27T09:23:48.896Z,29.34
2022-07-27T09:26:35.072Z,29.78
2022-07-27T09:29:05.424Z,29.98
2022-07-27T09:31:34.534Z,29.60
2022-07-27T09:34:04.475Z,29.71
2022-07-27T09:36:32.622Z,29.74
2022-07-27T09:39:04.079Z,29.84
2022-07-27T09:41:50.863Z,29.83
2022-07-27T09:44:42.943Z,30.00
2022-07-27T09:47:22.814Z,29.97
2022-07-27T09:49:52.728Z,29.76
2022-07-27T09:52:24.193Z,29.63
2022-07-27T09:54:52.912Z,29.99
2022-07-27T09:57:21.351Z,29.98
2022-07-27T09:59:49.772Z,29.26
2022-07-27T10:02:18.326Z,29.92
2022-07-27T10:04:48.901Z,30.41
2022-07-27T10:07:20.411Z,30.42
2022-07-27T10:09:48.731Z,30.50
2022-07-27T10:12:17.148Z,30.11
2022-07-27T10:14:46.557Z,30.28
2022-07-27T10:17:15.022Z,30.35
2022-07-27T10:19:47.560Z,30.27
2022-07-27T10:22:16.368Z,30.17
2022-07-27T10:24:51.226Z,30.30
2022-07-27T10:27:23.067Z,30.15
2022-07-27T10:29:52.243Z,30.73
2022-07-27T10:32:27.735Z,30.18
2022-07-27T10:34:56.190Z,30.60
2022-07-27T10:37:28.656Z,30.47
2022-07-27T10:40:17.304Z,30.06
2022-07-27T10:42:51.920Z,29.79
2022-07-27T10:45:22.589Z,30.40
2022-07-27T10:47:52.808Z,30.83
2022-07-27T10:50:24.965Z,30.39
2022-07-27T10:52:55.366Z,30.47
2022-07-27T10:55:50.165Z,30.44
2022-07-27T10:58:47.603Z,30.80
2022-07-27T11:01:17.417Z,30.54
2022-07-27T11:03:52.659Z,30.54
2022-07-27T11:06:41.943Z,31.40
2022-07-27T11:10:03.061Z,30.86
2022-07-27T11:12:09.789Z,30.88
2022-07-27T11:14:49.539Z,30.76
2022-07-27T11:20:09.095Z,32.08
2022-07-27T11:23:13.921Z,31.73
2022-07-27T11:25:27.200Z,31.99
2022-07-27T11:27:57.013Z,31.39
2022-07-27T11:30:26.448Z,31.77
2022-07-27T11:32:56.017Z,31.96
2022-07-27T11:35:24.706Z,31.42
2022-07-27T11:38:00.736Z,31.37
2022-07-27T11:46:26.617Z,32.49
2022-07-27T11:49:07.069Z,32.57
2022-07-27T11:51:37.205Z,32.29
2022-07-27T11:54:07.807Z,31.96
2022-07-27T11:56:38.694Z,31.80
2022-07-27T11:59:14.361Z,32.11
2022-07-27T12:01:49.155Z,32.01
2022-07-27T12:04:23.099Z,32.23
2022-07-27T12:07:06.355Z,31.42
2022-07-27T12:09:38.609Z,31.07
2022-07-27T12:12:13.993Z,29.98
2022-07-27T12:14:46.464Z,29.80
2022-07-27T12:17:18.499Z,29.83
2022-07-27T12:19:55.100Z,29.94
2022-07-27T12:25:29.605Z,30.90
2022-07-27T12:27:59.747Z,30.80
2022-07-27T12:30:33.827Z,30.93
2022-07-27T12:33:03.060Z,31.24
2022-07-27T12:35:37.369Z,31.01
2022-07-27T12:38:09.393Z,31.40
2022-07-27T12:40:45.566Z,32.03
2022-07-27T12:43:17.424Z,32.71
2022-07-27T12:45:49.616Z,32.12
2022-07-27T12:48:20.126Z,32.34
2022-07-27T12:50:49.988Z,32.09
2022-07-27T12:53:18.525Z,32.34
2022-07-27T12:55:46.812Z,31.26
2022-07-27T12:58:15.301Z,30.87
2022-07-27T13:00:44.511Z,30.65
2022-07-27T13:03:14.593Z,30.38
2022-07-27T13:05:42.992Z,30.32
2022-07-27T13:08:11.886Z,30.34
2022-07-27T13:10:45.510Z,30.91
2022-07-27T13:13:13.891Z,30.41
2022-07-27T13:15:42.310Z,31.15
2022-07-27T13:18:10.684Z,31.60
2022-07-27T13:20:42.399Z,31.66
2022-07-27T13:23:10.762Z,31.66
2022-07-27T13:25:43.199Z,31.74
2022-07-27T13:28:12.541Z,32.52
2022-07-27T13:30:41.074Z,32.10
2022-07-27T13:33:09.798Z,31.59
2022-07-27T13:35:38.290Z,31.51
2022-07-27T13:38:09.235Z,32.28
2022-07-27T13:40:44.469Z,32.09
2022-07-27T13:43:12.574Z,31.50
2022-07-27T13:45:43.559Z,31.95
2022-07-27T13:48:13.211Z,31.67
2022-07-27T13:50:42.140Z,32.00
2022-07-27T13:53:15.288Z,32.14
2022-07-27T13:55:45.051Z,31.92
2022-07-27T13:58:13.593Z,31.58
2022-07-27T14:00:42.306Z,31.73
2022-07-27T14:03:11.467Z,31.57
2022-07-27T14:05:48.847Z,32.28
2022-07-27T14:08:21.929Z,31.65
2022-07-27T14:10:51.220Z,31.53
2022-07-27T14:13:22.396Z,30.97
2022-07-27T14:15:54.156Z,31.32
2022-07-27T14:18:25.511Z,31.61
2022-07-27T14:20:54.898Z,30.92
2022-07-27T14:23:25.146Z,30.91
2022-07-27T14:25:54.201Z,31.21
2022-07-27T14:28:23.174Z,31.57
2022-07-27T14:30:52.591Z,31.20
2022-07-27T14:33:21.063Z,30.57
2022-07-27T14:35:49.789Z,30.09
2022-07-27T14:38:27.884Z,30.41
2022-07-27T14:41:01.780Z,30.76
2022-07-27T14:43:30.947Z,31.09
2022-07-27T14:46:00.048Z,30.93
2022-07-27T14:49:02.871Z,31.38
2022-07-27T14:51:17.136Z,31.54
2022-07-27T14:53:46.259Z,31.72
2022-07-27T14:56:16.234Z,31.76
2022-07-27T14:58:44.698Z,31.64
2022-07-27T15:01:16.666Z,32.10
2022-07-27T15:03:46.680Z,32.53
2022-07-27T15:06:15.085Z,32.44
2022-07-27T15:08:43.504Z,31.71
2022-07-27T15:11:12.036Z,30.74
2022-07-27T15:13:41.759Z,29.91
2022-07-27T15:16:11.348Z,30.36
2022-07-27T15:18:39.871Z,30.27
2022-07-27T15:21:13.580Z,30.08
2022-07-27T15:23:44.458Z,30.20
2022-07-27T15:26:13.627Z,30.09
2022-07-27T15:28:43.852Z,30.49
2022-07-27T15:31:13.584Z,30.90
2022-07-27T15:33:42.027Z,31.02
2022-07-27T15:36:32.419Z,31.12
2022-07-27T15:39:00.088Z,31.70
2022-07-27T15:41:28.578Z,31.46
2022-07-27T15:43:59.906Z,31.05
2022-07-27T15:46:28.555Z,31.04
2022-07-27T15:48:57.075Z,30.82
2022-07-27T15:51:26.190Z,30.57
2022-07-27T15:53:54.582Z,30.17
2022-07-27T15:56:22.927Z,31.13
2022-07-27T15:58:51.407Z,30.93
2022-07-27T16:01:21.504Z,31.33
2022-07-27T16:03:50.119Z,31.03
2022-07-27T16:06:19.197Z,30.89
2022-07-27T16:08:48.610Z,31.08
2022-07-27T16:11:17.031Z,30.79
2022-07-27T16:13:45.468Z,30.18
2022-07-27T16:16:24.994Z,30.31
2022-07-27T16:18:55.539Z,30.06
2022-07-27T16:21:25.200Z,29.62
2022-07-27T16:23:54.906Z,29.17
2022-07-27T16:26:23.654Z,29.91
2022-07-27T16:28:54.101Z,29.65
2022-07-27T16:31:22.687Z,30.40
2022-07-27T16:33:54.838Z,30.58
2022-07-27T16:36:25.176Z,29.96
2022-07-27T16:38:54.084Z,30.23
2022-07-27T16:41:24.601Z,30.41
2022-07-27T16:43:53.031Z,30.22
2022-07-27T16:46:21.761Z,30.29
2022-07-27T16:48:50.227Z,30.41
2022-07-27T16:51:18.656Z,30.38
2022-07-27T16:53:49.085Z,30.54
2022-07-27T16:56:18.085Z,29.90
2022-07-27T16:58:46.484Z,30.11
2022-07-27T17:01:26.291Z,29.46
2022-07-27T17:03:56.380Z,30.26
2022-07-27T17:06:25.943Z,30.22
2022-07-27T17:08:56.165Z,30.34
2022-07-27T17:11:24.932Z,30.58
2022-07-27T17:13:59.443Z,30.83
2022-07-27T17:16:28.942Z,30.49
2022-07-27T17:18:57.593Z,30.57
2022-07-27T17:21:26.551Z,31.23
2022-07-27T17:23:56.322Z,32.13
2022-07-27T17:26:25.172Z,32.72
2022-07-27T17:28:54.114Z,32.79
2022-07-27T17:31:22.875Z,32.94
2022-07-27T17:33:51.592Z,32.83
2022-07-27T17:36:20.783Z,32.81
2022-07-27T17:38:50.789Z,32.89
2022-07-27T17:41:24.942Z,33.08
2022-07-27T17:43:54.250Z,33.66
2022-07-27T17:46:23.180Z,33.62
2022-07-27T17:48:52.744Z,32.97
2022-07-27T17:51:23.248Z,33.04
2022-07-27T17:53:51.808Z,33.11
2022-07-27T17:56:21.605Z,33.51
2022-07-27T17:58:50.175Z,33.39
2022-07-27T18:01:46.447Z,33.26
2022-07-27T18:04:07.811Z,33.55
2022-07-27T18:06:36.500Z,33.37
2022-07-27T18:09:06.862Z,32.81
2022-07-27T18:11:37.022Z,32.91
2022-07-27T18:14:05.493Z,32.56
2022-07-27T18:16:40.200Z,31.28
2022-07-27T18:19:09.256Z,30.73
2022-07-27T18:21:37.779Z,30.11
2022-07-27T18:24:06.598Z,29.62
2022-07-27T18:26:40.263Z,29.00
2022-07-27T18:29:09.857Z,28.60
2022-07-27T18:31:38.986Z,28.24
2022-07-27T18:34:12.586Z,27.85
2022-07-27T18:36:42.497Z,26.88
2022-07-27T18:39:11.389Z,26.77
2022-07-27T18:41:41.607Z,26.16
2022-07-27T18:44:10.216Z,26.33
2022-07-27T18:46:38.733Z,25.74
2022-07-27T18:49:07.891Z,25.82
2022-07-27T18:51:38.453Z,25.58
2022-07-27T18:54:06.894Z,25.34
2022-07-27T18:56:35.512Z,25.29
2022-07-27T18:59:05.374Z,25.02
2022-07-27T19:01:33.875Z,24.75
2022-07-27T19:04:02.774Z,24.70
2022-07-27T19:06:31.943Z,24.55
2022-07-27T19:09:00.503Z,24.83
2022-07-27T19:11:28.923Z,24.47
2022-07-27T19:13:57.989Z,24.56
2022-07-27T19:16:27.888Z,24.43
2022-07-27T19:18:56.563Z,24.42
2022-07-27T19:21:25.079Z,24.51
2022-07-27T19:23:53.511Z,24.27
2022-07-27T19:26:22.053Z,24.27
2022-07-27T19:28:50.540Z,24.26
2022-07-27T19:31:23.400Z,24.24
2022-07-27T19:33:53.902Z,24.27
2022-07-27T19:36:23.303Z,24.08
2022-07-27T19:38:52.284Z,24.00
2022-07-27T19:41:20.813Z,24.20
2022-07-27T19:43:49.301Z,23.72
2022-07-27T19:46:17.782Z,23.76
2022-07-27T19:48:46.301Z,23.85
2022-07-27T19:51:17.117Z,24.00
2022-07-27T19:53:45.489Z,23.59
2022-07-27T19:56:14.010Z,23.67
2022-07-27T19:58:42.512Z,23.65
2022-07-27T20:01:11.530Z,23.75
2022-07-27T20:03:53.296Z,23.68
2022-07-27T20:06:25.082Z,23.78
2022-07-27T20:08:56.120Z,23.74
2022-07-27T20:11:24.865Z,23.70
2022-07-27T20:13:53.284Z,23.48
2022-07-27T20:16:21.730Z,23.33
2022-07-27T20:18:50.215Z,23.14
2022-07-27T20:21:22.560Z,23.24
2022-07-27T20:23:54.580Z,23.08
2022-07-27T20:26:22.979Z,22.97
2022-07-27T20:28:51.342Z,22.96
2022-07-27T20:31:20.257Z,22.96
2022-07-27T20:33:48.741Z,23.01
2022-07-27T20:36:17.468Z,22.75
2022-07-27T20:38:45.869Z,22.87
2022-07-27T20:41:15.650Z,22.87
2022-07-27T20:43:44.037Z,22.79
2022-07-27T20:46:12.487Z,22.70
2022-07-27T20:48:44.222Z,22.59
2022-07-27T20:51:12.720Z,22.61
2022-07-27T20:53:41.262Z,22.43
2022-07-27T20:56:09.674Z,22.66
2022-07-27T20:58:39.472Z,22.42
2022-07-27T21:01:08.008Z,22.32
2022-07-27T21:03:36.539Z,22.46
2022-07-27T21:06:05.353Z,22.46
2022-07-27T21:08:33.900Z,22.51
2022-07-27T21:11:02.364Z,22.36
2022-07-27T21:13:30.821Z,22.28
2022-07-27T21:16:00.586Z,22.17
2022-07-27T21:18:29.154Z,22.31
2022-07-27T21:20:57.638Z,22.25
2022-07-27T21:23:43.677Z,22.13
2022-07-27T21:26:12.184Z,22.09
2022-07-27T21:28:44.310Z,22.04
2022-07-27T21:31:14.193Z,21.95
2022-07-27T21:33:42.584Z,21.78
2022-07-27T21:36:11.163Z,21.91
2022-07-27T21:38:39.661Z,21.91
2022-07-27T21:41:09.677Z,21.75
2022-07-27T21:43:38.114Z,21.74
2022-07-27T21:46:06.621Z,21.65
2022-07-27T21:48:36.523Z,21.63
2022-07-27T21:51:05.025Z,21.63
2022-07-27T21:53:33.998Z,21.55
2022-07-27T21:56:02.757Z,21.60
2022-07-27T21:58:31.178Z,21.53
2022-07-27T22:00:59.670Z,21.67
2022-07-27T22:03:28.125Z,21.59
2022-07-27T22:05:57.933Z,21.50
2022-07-27T22:08:27.884Z,21.36
2022-07-27T22:10:56.401Z,21.40
2022-07-27T22:13:24.811Z,21.44
2022-07-27T22:15:53.729Z,21.30
2022-07-27T22:18:22.380Z,21.19
2022-07-27T22:20:50.948Z,21.13
2022-07-27T22:23:20.837Z,21.16
2022-07-27T22:25:49.538Z,21.06
2022-07-27T22:28:17.981Z,21.13
2022-07-27T22:33:34.381Z,20.91
2022-07-27T22:36:02.807Z,20.90
2022-07-27T22:38:33.030Z,20.83
2022-07-27T22:41:01.582Z,20.69
2022-07-27T22:43:30.694Z,20.82
2022-07-27T22:45:59.199Z,20.96
2022-07-27T22:48:28.047Z,20.87
2022-07-27T22:50:56.473Z,20.85
2022-07-27T22:53:25.027Z,20.85
2022-07-27T22:55:54.959Z,20.89
2022-07-27T22:58:23.430Z,20.80
2022-07-27T23:00:56.033Z,20.62
2022-07-27T23:03:27.779Z,20.77
2022-07-27T23:05:56.188Z,20.64
2022-07-27T23:08:24.608Z,20.45
2022-07-27T23:10:54.468Z,20.55
2022-07-27T23:13:23.087Z,20.51
2022-07-27T23:15:51.591Z,20.58
2022-07-27T23:18:20.820Z,20.57
2022-07-27T23:20:49.200Z,20.52
2022-07-27T23:23:17.530Z,20.35
2022-07-27T23:25:46.001Z,20.28
2022-07-27T23:28:17.444Z,20.17
2022-07-27T23:30:45.867Z,20.22
2022-07-27T23:33:14.241Z,19.99
2022-07-27T23:35:42.637Z,20.15
2022-07-27T23:38:11.038Z,20.05
2022-07-27T23:40:39.412Z,19.95
2022-07-27T23:43:07.802Z,19.90
2022-07-27T23:45:37.530Z,19.87
2022-07-27T23:48:06.284Z,19.80
2022-07-27T23:50:34.689Z,19.91
2022-07-27T23:53:03.056Z,19.88
2022-07-27T23:55:31.667Z,19.95
2022-07-27T23:58:00.015Z,19.89
